• Join FlightAware (Why Join?)
  • Login
  • US Flag 
08:46PM EDT


 

Airport Tracker/Info


-or-


 

Live Flight TrackerFlight Track Log ✈ DAL2028 ✈ 12-Jun-2013 ✈ KMCO - KDTW

Flight Track Log - Related Links

Times and Time Zones

All times are in EDT time to prevent confusion due to time zone crossing. See the DAL2028 flight status page for this flight to view local times or setup timezone preferences in your user account.

Time Position Orientation Groundspeed Altitude Reporting Facility
EDT Latitude Longitude Course Direction KTS MPH feet Rate Location/Type
04:09PM 28.4000 -81.3000 North 166 191 600  Level Orlando TRACON
04:09PM 28.4000 -81.3000 North 166 191 1,100 1,740 Climbing Orlando TRACON
04:10PM 28.3500 -81.2500 139° Southeast 256 295 2,900 2,400 Climbing Orlando TRACON
04:11PM 28.3500 -81.1667 90° East 277 319 5,900 2,580 Climbing Orlando TRACON
04:12PM 28.7427 -81.3418 353° North  Level FlightAware Approximate
04:13PM 28.8522 -81.3538 350° North  Level FlightAware Approximate
04:14PM 28.9615 -81.3667 North  Level FlightAware Approximate
04:14PM 28.5308 -81.1819 356° North 279 321 11,900  Level Jacksonville Center
04:15PM 28.6294 -81.2156 343° North 333 383 13,800 2,220 Climbing Jacksonville Center
04:16PM 28.7322 -81.2564 341° North 362 417 16,400 1,980 Climbing Jacksonville Center
04:17PM 28.8369 -81.2950 342° North 377 434 17,800 780 Climbing Jacksonville Center
04:18PM 28.9439 -81.3314 343° North 389 448 18,000  Climbing Jacksonville Center
04:19PM 29.0531 -81.3747 341° North 405 466 17,900 -60 Descending Jacksonville Center
04:20PM 29.1681 -81.3944 351° North 410 472 17,900 780 Level Jacksonville Center
04:21PM 29.2828 -81.4044 356° North 410 472 19,500 1,800 Climbing Jacksonville Center
04:22PM 29.3978 -81.4194 354° North 410 472 21,500 1,800 Climbing Jacksonville Center
04:23PM 29.5150 -81.4319 355° North 415 478 23,200 1,860 Climbing Jacksonville Center
04:24PM 29.6361 -81.4422 356° North 428 493 25,300 1,860 Climbing Jacksonville Center
04:25PM 29.7594 -81.4619 352° North 433 498 27,000 1,560 Climbing Jacksonville Center
04:26PM 29.8850 -81.4839 351° North 444 511 28,500 1,440 Climbing Jacksonville Center
04:27PM 30.0125 -81.5061 351° North 449 517 30,000 1,740 Climbing Jacksonville Center
04:28PM 30.1403 -81.5258 352° North 454 522 32,000 1,620 Climbing Jacksonville Center
04:29PM 30.2636 -81.5458 352° North 454 522 33,300 1,380 Climbing Jacksonville Center
04:30PM 30.3892 -81.5681 351° North 454 522 34,800 1,440 Climbing Jacksonville Center
04:31PM 30.5272 -81.5928 351° North 449 517 36,200 1,080 Climbing Jacksonville Center
04:32PM 30.6525 -81.6128 352° North 449 517 37,000 300 Climbing Jacksonville Center
04:33PM 30.7739 -81.6353 351° North 449 517 36,900 -60 Descending Jacksonville Center
04:34PM 30.8994 -81.6578 351° North 449 517 36,900  Level Jacksonville Center
04:35PM 31.0228 -81.6806 351° North 449 517 37,000  Climbing Jacksonville Center
04:36PM 31.1483 -81.7031 351° North 449 517 37,000  Level Jacksonville Center
04:37PM 31.2739 -81.7283 350° North 448 516 37,000  Level Jacksonville Center
04:38PM 31.3908 -81.7439 354° North 443 510 37,000  Level Jacksonville Center
04:39PM 31.5142 -81.7642 352° North 444 511 37,000  Level Jacksonville Center
04:40PM 31.6231 -81.7825 352° North 444 511 37,000  Level Jacksonville Center
04:41PM 31.7586 -81.7808 North 444 511 37,000  Level Jacksonville Center
04:42PM 31.8819 -81.7719 North 443 510 37,000  Level Jacksonville Center
04:43PM 31.9944 -81.7658 North 443 510 37,000  Level Jacksonville Center
04:44PM 32.1300 -81.7567 North 443 510 37,000  Level Jacksonville Center
04:45PM 32.2533 -81.7503 North 443 510 37,000  Level Jacksonville Center
04:46PM 32.3681 -81.7414 North 443 510 37,000  Level Jacksonville Center
04:47PM 32.5036 -81.7322 North 443 510 37,000  Level Jacksonville Center
04:48PM 32.6142 -81.7261 North 443 510 37,000  Level Jacksonville Center
04:49PM 32.7394 -81.7119 North 443 510 37,000  Level Jacksonville Center
04:50PM 32.8603 -81.7031 North 443 510 37,000  Level Jacksonville Center
04:51PM 32.9856 -81.6964 North 443 510 37,000  Level Jacksonville Center
04:52PM 33.1086 -81.6897 North 438 504 37,000  Level Jacksonville Center
04:53PM 33.2336 -81.6808 North 438 504 37,000  Level Jacksonville Center
04:54PM 33.3567 -81.6717 North 438 504 37,000  Level Jacksonville Center
04:55PM 33.4819 -81.6647 North 438 504 37,000  Level Jacksonville Center
04:57PM 33.7731 -81.6447 North 450 518 37,000  Level Atlanta Center
04:58PM 33.8942 -81.6514 357° North 444 511 37,000  Level Atlanta Center
04:59PM 34.0175 -81.6606 356° North 444 511 37,000  Level Atlanta Center
05:00PM 34.1533 -81.6717 356° North 444 511 37,000  Level Atlanta Center
05:01PM 34.2744 -81.6783 357° North 444 511 37,000  Level Atlanta Center
05:02PM 34.3978 -81.6900 356° North 439 505 37,000  Level Atlanta Center
05:03PM 34.5192 -81.6967 357° North 444 511 37,000  Level Atlanta Center
05:04PM 34.6425 -81.7108 355° North 444 511 37,000  Level Atlanta Center
05:05PM 34.7639 -81.7253 354° North 444 511 37,000  Level Atlanta Center
05:06PM 34.8828 -81.7294 358° North 439 505 37,000  Level Atlanta Center
05:07PM 35.0061 -81.7389 356° North 434 499 37,000  Level Atlanta Center
05:08PM 35.1272 -81.7508 355° North 440 506 37,000  Level Atlanta Center
05:09PM 35.2506 -81.7575 357° North 440 506 37,000  Level Atlanta Center
05:10PM 35.3697 -81.7694 355° North 440 506 37,000  Level Atlanta Center
05:11PM 35.4806 -81.7767 357° North 440 506 37,000  Level Atlanta Center
05:12PM 35.6017 -81.7861 356° North 440 506 37,000  Level Atlanta Center
05:13PM 35.7228 -81.7956 356° North 440 506 37,000  Level Atlanta Center
05:14PM 35.8439 -81.8022 357° North 440 506 37,000  Level Atlanta Center
05:15PM 35.9756 -81.8117 357° North 440 506 37,000  Level Atlanta Center
05:16PM 36.0967 -81.8211 356° North 440 506 37,000  Level Atlanta Center
05:17PM 36.2178 -81.8281 357° North 440 506 37,000  Level Atlanta Center
05:18PM 36.3389 -81.8350 357° North 440 506 37,000  Level Atlanta Center
05:19PM 36.4600 -81.8447 356° North 440 506 37,000  Level Atlanta Center
05:21PM 36.7269 -81.8650 357° North 412 474 37,000  Level Indianapolis Center
05:22PM 36.8467 -81.8725 357° North 426 490 37,000  Level Indianapolis Center
05:23PM 36.9633 -81.8811 357° North 422 486 37,000  Level Indianapolis Center
05:25PM 37.0786 -81.8900 356° North 417 480 37,000  Level Indianapolis Center
05:26PM 37.2136 -81.9017 356° North 416 479 37,000  Level Indianapolis Center
05:27PM 37.3292 -81.9117 356° North 416 479 37,000  Level Indianapolis Center
05:28PM 37.4447 -81.9206 357° North 416 479 37,000  Level Indianapolis Center
05:29PM 37.5611 -81.9297 356° North 417 480 37,000  Level Indianapolis Center
05:30PM 37.6761 -81.9386 356° North 415 478 37,000  Level Indianapolis Center
05:31PM 37.8122 -81.9503 356° North 417 480 37,000  Level Indianapolis Center
05:32PM 37.9128 -81.9578 357° North 424 488 37,000  Level Indianapolis Center
05:33PM 38.0586 -81.9694 356° North 434 499 37,000  Level Indianapolis Center
05:34PM 38.1800 -81.9786 357° North 433 498 37,000  Level Indianapolis Center
05:35PM 38.3000 -81.9886 356° North 430 495 37,000  Level Indianapolis Center
05:36PM 38.4206 -81.9992 356° North 431 496 37,000  Level Indianapolis Center
05:37PM 38.5400 -82.0078 357° North 428 493 37,000  Level Indianapolis Center
05:38PM 38.6608 -82.0181 356° North 429 494 37,000  Level Indianapolis Center
05:39PM 38.7800 -82.0303 355° North 427 491 37,000  Level Indianapolis Center
05:40PM 38.8989 -82.0483 353° North 426 490 37,000  Level Indianapolis Center
05:41PM 39.0408 -82.0708 353° North 425 489 37,000  Level Indianapolis Center
05:42PM 39.1567 -82.0900 353° North 420 483 37,000  Level Indianapolis Center
05:43PM 39.2728 -82.1069 354° North 419 482 37,000  Level Indianapolis Center
05:44PM 39.3875 -82.1267 352° North 416 479 37,000  Level Indianapolis Center
05:45PM 39.5017 -82.1453 353° North 420 483 37,000  Level Indianapolis Center
05:46PM 39.6214 -82.1631 353° North 428 493 37,000 -300 Level Indianapolis Center
05:47PM 39.7600 -82.1864 353° North 427 491 36,400 -1,020 Descending Indianapolis Center
05:48PM 39.8819 -82.2072 353° North 436 502 35,000 -780 Descending Indianapolis Center
05:49PM 40.0031 -82.2244 354° North 437 503 34,900 -60 Descending Indianapolis Center
05:50PM 40.1261 -82.2453 353° North 441 507 34,900  Level Indianapolis Center
05:51PM 40.2528 -82.2664 353° North 439 505 35,000 -660 Climbing Indianapolis Center
05:52PM 40.3736 -82.2872 353° North 435 501 33,600 -2,100 Descending Indianapolis Center
05:53PM 40.4956 -82.3089 352° North 436 502 30,700 -1,800 Descending Indianapolis Center
05:54PM 40.6139 -82.3425 348° North 432 497 30,000 -360 Descending Indianapolis Center
05:56PM 40.7581 -82.3844 348° North 447 514 30,000 -420 Level Indianapolis Center
05:57PM 40.8811 -82.4200 348° North 448 516 29,200 -1,500 Descending Indianapolis Center
05:57PM 40.9631 -82.4447 347° North 439 505 27,500 -2,520 Descending Cleveland Center
05:58PM 41.0831 -82.4839 346° North 450 518 25,000 -1,800 Descending Cleveland Center
05:59PM 41.1911 -82.5147 348° North 445 512 24,000 -1,140 Descending Cleveland Center
06:00PM 41.2903 -82.5700 337° Northwest 410 472 22,800 -1,380 Descending Cleveland Center
06:01PM 41.3658 -82.6581 319° Northwest 377 434 21,300 -1,800 Descending Cleveland Center
06:02PM 41.4353 -82.7381 319° Northwest 344 396 19,200 -2,400 Descending Cleveland Center
06:03PM 41.4800 -82.7894 319° Northwest 323 372 17,600 -2,340 Descending Cleveland Center
06:03PM 41.5025 -82.8178 317° Northwest 330 380 16,900 -2,100 Descending Cleveland Center
06:04PM 41.5697 -82.8978 318° Northwest 313 360 14,700 -2,220 Descending Cleveland Center
06:05PM 41.6369 -82.9725 320° Northwest 314 361 12,500 -1,380 Descending Cleveland Center
06:06PM 41.6897 -83.0386 317° Northwest 309 356 12,000 -300 Descending Cleveland Center
06:07PM 41.7489 -83.0936 325° Northwest 283 326 12,000  Level Cleveland Center
06:08PM 41.8147 -83.1408 332° Northwest 272 313 12,000  Level Cleveland Center
06:09PM 41.8803 -83.1908 330° Northwest 266 306 12,000  Level Cleveland Center
06:10PM 41.9542 -83.2442 332° Northwest 266 306 12,000  Level Cleveland Center
06:11PM 42.0194 -83.2972 329° Northwest 265 305 12,000  Level Cleveland Center
06:12PM 42.0750 -83.3358 333° Northwest 261 300 12,000  Level Cleveland Center
06:13PM 42.1567 -83.4039 328° Northwest 262 302 12,000 -420 Level Cleveland Center
06:14PM 42.2228 -83.4236 348° North 279 321 11,100 -1,200 Descending Cleveland Center
06:15PM 42.3064 -83.4189 North 278 320 9,600 -1,380 Descending Cleveland Center
06:17PM 42.3842 -83.3886 16° North 253 291 8,200 -1,320 Descending Cleveland Center
06:18PM 42.4475 -83.3578 20° North 237 273 6,800 -1,680 Descending Cleveland Center
06:18PM 42.5044 -83.3319 18° North 230 265 5,000 -1,440 Descending Cleveland Center
06:19PM 42.5678 -83.3039 18° North 243 280 4,000 -480 Descending Cleveland Center
06:21PM 42.5758 -83.2194 83° East 217 250 4,000  Level Cleveland Center